Time;durP1;ratioP1;P1;durP2;ratioP2;P2;SDS_P1;SDS_P2;PMS_P1;PMS_P2;Temp;Humidity;BMP_temperature;BMP_pressure;BME280_temperature;BME280_humidity;BME280_pressure;Samples;Min_cycle;Max_cycle;Signal;HPM_P1;HPM_P2
2022/06/28 00:00:32;;;;;;;8.00;5.50;;;;;;;24.95;54.10;99814.38;4343538;33;34433;-76
2022/06/28 00:03:18;;;;;;;7.95;5.50;;;;;;;24.88;54.56;99817.22;4338192;33;34721;-75
2022/06/28 00:06:05;;;;;;;8.30;5.25;;;;;;;24.01;58.15;99810.81;4338637;33;34924;-75
2022/06/28 00:08:51;;;;;;;7.82;5.68;;;;;;;24.68;56.72;99826.06;4344232;33;34765;-75
2022/06/28 00:11:38;;;;;;;9.05;5.20;;;;;;;24.58;57.35;99829.66;4343295;33;34376;-75
2022/06/28 00:17:30;;;;;;;9.90;6.00;;;;;;;24.56;57.84;99820.06;4338715;33;35044;-75
2022/06/28 00:20:16;;;;;;;10.18;6.03;;;;;;;24.60;57.94;99824.47;4342949;33;34611;-75
2022/06/28 00:23:03;;;;;;;8.38;5.12;;;;;;;24.47;57.66;99817.66;4321753;33;34155;-76
2022/06/28 00:25:49;;;;;;;9.32;4.45;;;;;;;24.63;56.28;99817.25;4342082;33;35725;-75
2022/06/28 00:28:36;;;;;;;9.55;4.82;;;;;;;24.48;55.91;99813.69;4342779;33;35983;-75
2022/06/28 00:31:25;;;;;;;9.23;4.87;;;;;;;24.22;57.09;99810.06;4340617;33;34630;-76
2022/06/28 00:34:11;;;;;;;8.23;4.62;;;;;;;24.10;57.60;99798.44;4342750;33;34114;-75
2022/06/28 00:36:57;;;;;;;7.68;4.47;;;;;;;24.08;57.24;99812.03;4342753;33;34709;-75
2022/06/28 00:39:44;;;;;;;10.20;4.78;;;;;;;23.94;56.47;99813.62;4341424;33;34969;-76
2022/06/28 00:42:30;;;;;;;6.50;4.53;;;;;;;24.21;55.91;99816.84;4330113;33;34242;-75
2022/06/28 00:45:17;;;;;;;5.95;4.87;;;;;;;24.18;56.42;99817.63;4327115;33;35080;-75
2022/06/28 00:48:03;;;;;;;7.35;4.87;;;;;;;24.18;56.89;99823.22;4336777;33;34664;-75
2022/06/28 00:50:50;;;;;;;6.72;4.95;;;;;;;24.54;56.22;99823.28;4337553;33;35412;-75
2022/06/28 00:53:36;;;;;;;8.35;5.43;;;;;;;24.61;56.11;99825.25;4341505;33;34952;-75
2022/06/28 00:56:23;;;;;;;7.87;5.30;;;;;;;24.33;57.26;99823.25;4338555;33;34351;-75
2022/06/28 00:59:10;;;;;;;8.40;5.32;;;;;;;24.06;58.35;99818.03;4339779;33;35615;-75
2022/06/28 01:01:57;;;;;;;8.88;5.15;;;;;;;24.21;57.56;99819.63;4341372;33;35943;-75
2022/06/28 01:04:44;;;;;;;9.32;5.35;;;;;;;23.66;60.65;99830.31;4326011;33;34634;-75
2022/06/28 01:07:30;;;;;;;8.05;5.32;;;;;;;23.63;60.81;99834.69;4325483;33;33887;-75
2022/06/28 01:10:17;;;;;;;9.63;5.57;;;;;;;23.27;62.56;99850.53;4337585;33;34643;-75
2022/06/28 01:13:03;;;;;;;7.05;5.28;;;;;;;23.41;62.16;99838.63;4324643;33;35944;-76
2022/06/28 01:15:50;;;;;;;7.72;5.00;;;;;;;23.80;60.63;99835.97;4339817;33;34156;-75
2022/06/28 01:18:37;;;;;;;8.88;5.28;;;;;;;23.73;60.46;99831.16;4331619;33;35064;-76
2022/06/28 01:21:27;;;;;;;8.10;5.20;;;;;;;23.60;60.95;99832.69;4339083;33;34665;-75
2022/06/28 01:24:14;;;;;;;7.97;5.25;;;;;;;23.79;60.31;99826.78;4337732;33;34986;-75
2022/06/28 01:27:01;;;;;;;10.45;5.40;;;;;;;24.09;59.01;99834.03;4338361;33;34884;-75
2022/06/28 01:29:48;;;;;;;8.98;4.93;;;;;;;23.94;59.59;99833.22;4332636;33;34314;-75
2022/06/28 01:32:35;;;;;;;9.55;4.97;;;;;;;23.27;62.42;99834.53;4325513;33;34628;-75
2022/06/28 01:35:22;;;;;;;7.78;5.60;;;;;;;23.86;60.47;99828.00;4338355;33;35056;-75
2022/06/28 01:38:10;;;;;;;6.78;5.50;;;;;;;23.69;60.87;99829.53;4327465;33;34184;-75
2022/06/28 01:40:56;;;;;;;8.63;4.90;;;;;;;23.57;61.47;99820.31;4339815;33;34235;-75
2022/06/28 01:43:44;;;;;;;7.95;5.15;;;;;;;23.60;61.34;99815.91;4338373;33;34719;-75
2022/06/28 01:46:31;;;;;;;7.57;5.03;;;;;;;23.82;60.51;99813.97;4325828;33;34710;-75
2022/06/28 01:49:18;;;;;;;7.37;5.35;;;;;;;24.01;59.52;99818.41;4326137;33;34823;-75
2022/06/28 01:52:04;;;;;;;9.32;6.07;;;;;;;23.87;59.99;99822.00;4343839;33;34327;-75
2022/06/28 01:54:51;;;;;;;13.02;5.43;;;;;;;23.64;61.06;99827.91;4339598;33;34648;-75
2022/06/28 01:57:38;;;;;;;7.70;5.45;;;;;;;22.97;63.88;99829.22;4329380;33;35967;-75
2022/06/28 02:00:24;;;;;;;8.55;5.20;;;;;;;22.96;64.59;99844.38;4326071;33;35488;-75
2022/06/28 02:03:11;;;;;;;9.10;5.15;;;;;;;23.15;63.55;99840.50;4325735;33;34180;-75
2022/06/28 02:05:58;;;;;;;9.65;4.90;;;;;;;23.41;61.81;99847.00;4323884;33;34662;-75
2022/06/28 02:08:45;;;;;;;6.75;5.03;;;;;;;23.23;62.25;99844.94;4335482;33;35972;-75
2022/06/28 02:11:31;;;;;;;9.13;5.05;;;;;;;23.45;61.77;99845.84;4337707;33;37093;-75
2022/06/28 02:14:19;;;;;;;7.68;4.82;;;;;;;23.17;62.71;99842.88;4324280;33;34193;-75
2022/06/28 02:17:05;;;;;;;10.32;4.90;;;;;;;23.20;62.52;99842.91;4326894;33;34645;-75
2022/06/28 02:19:52;;;;;;;10.73;4.95;;;;;;;23.41;61.67;99847.00;4339322;33;34945;-76
2022/06/28 02:22:38;;;;;;;6.00;4.50;;;;;;;23.55;61.47;99835.88;4327015;33;34605;-75
2022/06/28 02:25:25;;;;;;;8.95;5.20;;;;;;;23.73;60.83;99836.75;4339400;33;34220;-75
2022/06/28 02:28:12;;;;;;;8.40;4.97;;;;;;;23.36;62.00;99828.59;4338777;33;35611;-75
2022/06/28 02:30:59;;;;;;;11.98;4.62;;;;;;;23.19;63.70;99823.72;4330313;33;34907;-75
2022/06/28 02:33:45;;;;;;;9.27;5.32;;;;;;;23.68;61.63;99827.91;4334236;33;34720;-74
2022/06/28 02:42:41;;;;;;;7.82;5.00;;;;;;;22.00;69.73;99861.88;4339001;33;35172;-75
2022/06/28 02:45:30;;;;;;;10.27;5.47;;;;;;;22.19;68.42;99860.09;4341248;33;35610;-75
2022/06/28 02:48:17;;;;;;;6.37;4.90;;;;;;;22.06;68.48;99862.34;4315956;33;34235;-75
2022/06/28 02:51:03;;;;;;;10.93;5.20;;;;;;;22.54;66.24;99864.37;4335953;33;35311;-75
2022/06/28 02:53:49;;;;;;;8.27;4.60;;;;;;;22.71;64.45;99858.13;4337303;33;36154;-75
2022/06/28 02:56:37;;;;;;;8.95;4.62;;;;;;;22.95;62.18;99856.75;4328974;33;34576;-75
2022/06/28 02:59:24;;;;;;;7.97;5.05;;;;;;;22.65;63.38;99856.87;4340402;33;33041;-76
2022/06/28 03:02:10;;;;;;;7.72;4.65;;;;;;;23.23;61.26;99847.72;4337865;33;35522;-75
2022/06/28 03:04:56;;;;;;;7.87;4.40;;;;;;;23.22;61.38;99843.31;4335976;33;35053;-75
2022/06/28 03:07:43;;;;;;;8.52;4.32;;;;;;;23.22;61.23;99851.69;4327520;33;35489;-75
2022/06/28 03:10:30;;;;;;;7.60;4.93;;;;;;;23.24;61.15;99845.72;4335770;33;34132;-75
2022/06/28 03:13:15;;;;;;;9.65;4.78;;;;;;;23.22;61.56;99846.09;4337637;33;34716;-75
2022/06/28 03:16:02;;;;;;;12.18;5.22;;;;;;;23.06;62.47;99837.25;4339624;33;34985;-75
2022/06/28 03:18:48;;;;;;;5.53;4.15;;;;;;;23.18;61.85;99838.91;4340457;32;34730;-75
2022/06/28 03:21:35;;;;;;;7.85;4.95;;;;;;;23.35;60.37;99847.38;4336687;33;34136;-75
2022/06/28 03:24:21;;;;;;;8.50;5.25;;;;;;;23.09;62.02;99861.63;4335489;33;34725;-75
2022/06/28 03:27:07;;;;;;;7.70;5.47;;;;;;;23.04;62.48;99867.56;4334847;33;36012;-75
2022/06/28 03:29:54;;;;;;;8.45;4.90;;;;;;;22.56;65.26;99876.78;4326136;33;34241;-75
2022/06/28 03:32:42;;;;;;;7.72;4.65;;;;;;;23.10;63.73;99882.78;4339552;33;34174;-75
2022/06/28 03:35:29;;;;;;;6.50;4.50;;;;;;;23.32;62.92;99900.47;4325232;33;34627;-75
2022/06/28 03:38:16;;;;;;;7.97;4.68;;;;;;;23.22;61.37;99918.78;4339007;33;35036;-75
2022/06/28 03:41:06;;;;;;;7.60;4.47;;;;;;;23.11;62.97;99935.50;4335203;33;34844;-75
2022/06/28 03:43:52;;;;;;;9.27;4.70;;;;;;;23.42;61.62;99938.84;4339438;33;34250;-75
2022/06/28 03:46:39;;;;;;;8.18;4.40;;;;;;;23.30;61.75;99934.41;4338170;33;34645;-75
2022/06/28 03:49:27;;;;;;;9.13;4.60;;;;;;;23.09;60.21;99953.84;4336061;33;34970;-75
2022/06/28 03:52:14;;;;;;;5.85;4.37;;;;;;;23.52;59.33;99959.72;4323319;33;34709;-76
2022/06/28 03:55:01;;;;;;;7.70;4.43;;;;;;;23.66;59.04;99970.19;4337657;33;35113;-75
2022/06/28 03:57:47;;;;;;;7.85;4.37;;;;;;;23.62;58.80;99970.13;4335533;33;34725;-75
2022/06/28 04:00:34;;;;;;;7.70;4.65;;;;;;;23.91;58.07;99965.53;4336889;33;35081;-75
2022/06/28 04:03:21;;;;;;;6.78;4.57;;;;;;;23.85;59.60;99963.47;4335946;33;34618;-75
2022/06/28 04:06:07;;;;;;;7.62;4.40;;;;;;;24.18;58.47;99965.22;4339464;33;34230;-75
2022/06/28 04:08:54;;;;;;;8.10;4.57;;;;;;;24.24;59.53;99967.22;4336038;33;34733;-74
2022/06/28 04:11:41;;;;;;;6.43;3.92;;;;;;;24.20;59.47;99963.63;4337138;33;35893;-76
2022/06/28 04:14:27;;;;;;;7.18;4.47;;;;;;;24.34;58.38;99970.47;4335645;33;34713;-77
2022/06/28 04:17:13;;;;;;;9.70;4.62;;;;;;;24.17;59.31;99983.22;4337855;33;34154;-77
2022/06/28 04:20:02;;;;;;;8.50;4.35;;;;;;;24.40;58.11;99991.28;4323883;33;34989;-77
2022/06/28 04:22:49;;;;;;;7.50;4.40;;;;;;;24.66;58.49;99987.34;4327015;33;33780;-77
2022/06/28 04:25:37;;;;;;;12.85;4.03;;;;;;;24.90;58.12;99994.16;4327288;33;33447;-76
2022/06/28 04:28:23;;;;;;;6.45;4.35;;;;;;;24.87;57.04;99986.56;4331928;33;35207;-77
2022/06/28 04:31:11;;;;;;;8.00;4.20;;;;;;;25.01;56.09;99980.94;4340006;33;34694;-77
2022/06/28 04:33:57;;;;;;;7.97;4.12;;;;;;;25.25;55.84;99972.97;4339176;33;34480;-77
2022/06/28 04:36:43;;;;;;;8.32;3.97;;;;;;;25.04;54.96;99974.53;4336181;33;35792;-77
2022/06/28 04:39:30;;;;;;;6.80;3.45;;;;;;;23.54;58.52;99990.88;4316621;33;35315;-77
2022/06/28 04:42:18;;;;;;;5.43;3.35;;;;;;;23.47;57.59;100016.78;4326054;33;34510;-77
2022/06/28 04:45:05;;;;;;;7.15;3.55;;;;;;;23.65;56.70;100027.28;4339942;33;35626;-77
2022/06/28 04:47:53;;;;;;;8.50;3.70;;;;;;;23.69;56.32;100020.53;4325239;33;34570;-77
2022/06/28 04:50:39;;;;;;;8.73;3.97;;;;;;;23.72;57.48;100061.75;4325567;33;35154;-76
2022/06/28 04:53:26;;;;;;;8.23;3.92;;;;;;;23.79;55.48;100053.41;4326293;33;34734;-77
2022/06/28 04:56:16;;;;;;;5.57;3.92;;;;;;;23.60;56.88;100056.44;4336653;33;35014;-77
2022/06/28 04:59:04;;;;;;;8.30;4.12;;;;;;;24.21;55.42;100057.59;4334837;33;35684;-75
2022/06/28 05:01:50;;;;;;;8.15;4.57;;;;;;;23.91;56.98;100060.66;4335811;33;34809;-76
2022/06/28 05:04:37;;;;;;;8.38;4.20;;;;;;;24.26;55.94;100052.84;4338154;33;34638;-78
2022/06/28 05:07:23;;;;;;;8.38;4.57;;;;;;;24.33;56.18;100044.44;4335552;33;35362;-76
2022/06/28 05:10:10;;;;;;;7.07;4.25;;;;;;;23.63;58.85;100049.28;4329160;33;34208;-77
2022/06/28 05:12:57;;;;;;;9.15;4.57;;;;;;;23.77;59.42;100066.97;4338327;32;35105;-77
2022/06/28 05:15:43;;;;;;;11.15;4.35;;;;;;;23.88;58.28;100069.03;4318618;33;34625;-77
2022/06/28 05:18:30;;;;;;;7.50;3.83;;;;;;;23.50;59.89;100085.94;4323906;33;34681;-78
2022/06/28 05:21:18;;;;;;;11.65;3.80;;;;;;;23.44;60.81;100098.66;4333079;33;35542;-77
2022/06/28 05:24:05;;;;;;;8.40;3.42;;;;;;;23.33;61.78;100097.78;4333045;33;34420;-79
2022/06/28 05:26:52;;;;;;;5.70;3.65;;;;;;;23.41;62.10;100093.06;4322725;33;35620;-79
2022/06/28 05:29:38;;;;;;;8.30;3.53;;;;;;;23.58;62.49;100070.00;4333170;33;35064;-79
2022/06/28 05:32:25;;;;;;;9.30;4.00;;;;;;;23.76;62.41;100058.97;4320990;33;34823;-79
2022/06/28 05:35:11;;;;;;;8.55;3.83;;;;;;;23.60;63.00;100059.25;4337537;33;35366;-77
2022/06/28 05:37:58;;;;;;;9.20;3.95;;;;;;;23.69;64.20;100054.09;4330732;33;34658;-78
2022/06/28 05:40:44;;;;;;;16.52;6.45;;;;;;;24.01;63.24;100059.12;4333680;33;34728;-81
2022/06/28 05:43:31;;;;;;;10.35;5.28;;;;;;;24.12;73.39;100031.97;4331220;33;196727;-79
2022/06/28 05:46:17;;;;;;;10.13;4.60;;;;;;;24.03;78.01;100000.75;4339504;33;34162;-78
2022/06/28 05:49:03;;;;;;;12.25;5.30;;;;;;;23.25;78.83;99990.69;4340429;33;34787;-79
2022/06/28 05:51:50;;;;;;;9.95;5.10;;;;;;;23.98;77.94;99948.75;4338596;33;34600;-78
2022/06/28 05:54:36;;;;;;;6.55;4.80;;;;;;;24.08;79.79;99933.19;4322281;33;34321;-79
2022/06/28 05:57:22;;;;;;;7.37;5.03;;;;;;;24.60;78.14;99942.13;4332912;33;34176;-79
2022/06/28 06:00:10;;;;;;;7.53;5.50;;;;;;;24.70;78.72;99951.72;4334250;33;34685;-79
2022/06/28 06:02:59;;;;;;;11.90;6.15;;;;;;;24.64;79.71;99956.13;4325142;33;35127;-80
2022/06/28 06:05:46;;;;;;;11.95;6.22;;;;;;;24.21;83.63;99953.22;4319936;33;34565;-79
2022/06/28 06:08:32;;;;;;;17.95;6.97;;;;;;;24.11;85.70;99942.81;4330226;33;35112;-77
2022/06/28 06:11:20;;;;;;;12.48;5.97;;;;;;;24.34;80.77;99934.06;4326139;32;33257;-78
2022/06/28 06:14:06;;;;;;;10.77;7.00;;;;;;;24.45;82.22;99930.09;4318924;33;35014;-78
2022/06/28 06:16:53;;;;;;;11.32;6.43;;;;;;;24.11;84.96;99907.22;4329726;33;33932;-78
2022/06/28 06:19:39;;;;;;;10.80;6.10;;;;;;;24.07;87.30;99898.00;4340720;33;34244;-77
2022/06/28 06:22:25;;;;;;;9.95;5.18;;;;;;;24.08;84.91;99874.44;4315599;33;34584;-77
2022/06/28 06:25:13;;;;;;;9.65;5.93;;;;;;;23.66;85.67;99875.88;4328248;33;35063;-78
2022/06/28 06:27:59;;;;;;;9.63;6.97;;;;;;;21.64;100.00;99963.06;4331600;33;35805;-78
2022/06/28 06:30:45;;;;;;;13.62;6.45;;;;;;;20.99;100.00;99992.72;4332500;33;34392;-78
2022/06/28 06:33:32;;;;;;;11.02;4.70;;;;;;;21.12;100.00;99969.06;4340781;33;35519;-77
2022/06/28 06:36:21;;;;;;;12.82;6.07;;;;;;;21.50;100.00;99960.88;4343492;33;35487;-77
2022/06/28 06:39:09;;;;;;;9.55;4.65;;;;;;;22.15;98.21;99940.16;4333681;33;35624;-76
2022/06/28 06:41:55;;;;;;;12.20;5.03;;;;;;;22.49;96.96;99892.69;4328343;33;33997;-77
2022/06/28 06:44:41;;;;;;;12.35;5.22;;;;;;;22.38;97.91;99892.56;4321410;33;35346;-78
2022/06/28 06:47:28;;;;;;;11.48;5.82;;;;;;;22.11;100.00;99940.09;4332707;33;35001;-78
2022/06/28 06:50:14;;;;;;;14.07;5.78;;;;;;;20.93;100.00;99958.00;4333051;33;34610;-78
2022/06/28 06:53:02;;;;;;;18.17;6.75;;;;;;;21.44;100.00;99977.13;4317416;33;33937;-78
2022/06/28 06:55:49;;;;;;;14.85;5.12;;;;;;;20.36;100.00;100004.28;4337080;33;35635;-77
2022/06/28 06:58:35;;;;;;;12.05;5.43;;;;;;;20.69;100.00;99975.06;4311218;33;35006;-74
2022/06/28 07:01:22;;;;;;;12.07;4.03;;;;;;;20.57;100.00;99996.34;4342818;33;35452;-75
2022/06/28 07:04:28;;;;;;;13.18;3.87;;;;;;;21.49;100.00;99982.38;4339628;33;35135;-76
2022/06/28 07:07:19;;;;;;;10.88;4.00;;;;;;;22.35;99.45;99977.87;4328698;33;34660;-76
2022/06/28 07:10:06;;;;;;;13.10;3.83;;;;;;;20.79;100.00;99988.41;4320214;33;35608;-76
2022/06/28 07:12:52;;;;;;;14.77;4.18;;;;;;;22.10;100.00;99960.81;4324597;33;34673;-81
2022/06/28 07:15:39;;;;;;;11.02;4.05;;;;;;;22.22;100.00;99962.59;4341372;33;35099;-76
2022/06/28 07:18:26;;;;;;;13.82;3.65;;;;;;;22.62;100.00;99955.41;4330419;33;34383;-75
2022/06/28 07:21:16;;;;;;;11.23;3.58;;;;;;;22.64;98.09;99950.25;4341204;33;34976;-76
2022/06/28 07:24:02;;;;;;;10.10;2.72;;;;;;;22.83;92.27;99944.44;4342710;33;33905;-74
2022/06/28 07:26:49;;;;;;;12.35;2.92;;;;;;;22.98;90.59;99927.81;4326106;33;33882;-74
2022/06/28 07:29:37;;;;;;;12.65;3.62;;;;;;;22.55;93.78;99927.44;4336914;33;37339;-72
2022/06/28 07:32:23;;;;;;;11.38;2.60;;;;;;;22.84;94.41;99906.91;4340469;33;35986;-75
2022/06/28 07:35:10;;;;;;;11.57;3.17;;;;;;;23.00;94.29;99911.47;4337975;33;34202;-75
2022/06/28 07:37:56;;;;;;;8.55;2.55;;;;;;;22.72;96.35;99912.03;4335066;32;33891;-75
2022/06/28 07:40:47;;;;;;;12.50;3.10;;;;;;;22.66;97.60;99942.28;4336270;33;35507;-74
2022/06/28 07:43:35;;;;;;;9.13;2.35;;;;;;;20.87;100.00;99974.22;4325953;33;35815;-74
2022/06/28 07:46:23;;;;;;;10.00;2.90;;;;;;;21.56;100.00;99960.16;4338529;33;34648;-75
2022/06/28 07:49:09;;;;;;;9.38;2.67;;;;;;;21.89;100.00;99972.53;4322389;33;34248;-75
2022/06/28 07:55:04;;;;;;;11.57;3.65;;;;;;;20.91;100.00;100006.87;4338372;32;35465;-74
2022/06/28 07:57:51;;;;;;;9.05;2.53;;;;;;;20.99;100.00;100009.44;4328770;33;34707;-75
2022/06/28 08:00:38;;;;;;;11.60;2.95;;;;;;;21.19;100.00;100006.56;4336917;33;35002;-75
2022/06/28 08:03:25;;;;;;;12.52;3.37;;;;;;;20.62;100.00;99995.25;4336858;33;34261;-77
2022/06/28 08:06:11;;;;;;;9.32;3.33;;;;;;;21.16;100.00;99996.97;4315803;33;35854;-76
2022/06/28 08:08:59;;;;;;;11.68;3.12;;;;;;;21.10;100.00;99995.69;4338008;33;34668;-76
2022/06/28 08:11:46;;;;;;;6.53;2.90;;;;;;;21.15;100.00;100003.72;4325284;33;35149;-76
2022/06/28 08:14:32;;;;;;;10.48;3.47;;;;;;;20.89;100.00;99999.72;4338253;33;34776;-75
2022/06/28 08:17:19;;;;;;;12.37;3.70;;;;;;;20.96;100.00;99995.44;4326548;33;34499;-75
2022/06/28 08:20:07;;;;;;;8.77;3.95;;;;;;;20.55;100.00;99987.59;4333488;33;34543;-75
2022/06/28 08:22:53;;;;;;;9.50;3.08;;;;;;;21.48;100.00;99986.31;4329040;33;34249;-74
2022/06/28 08:25:43;;;;;;;12.88;4.28;;;;;;;21.94;100.00;99985.34;4328154;33;35013;-74
2022/06/28 08:28:29;;;;;;;6.05;3.85;;;;;;;21.07;100.00;99983.28;4340353;33;35991;-75
2022/06/28 08:31:16;;;;;;;11.25;3.85;;;;;;;21.09;100.00;99991.28;4324012;33;35225;-75
2022/06/28 08:34:02;;;;;;;9.98;3.65;;;;;;;20.81;100.00;99986.06;4339718;33;33954;-75
2022/06/28 08:36:49;;;;;;;12.93;4.65;;;;;;;21.03;100.00;99992.75;4323673;33;34301;-74
2022/06/28 08:39:36;;;;;;;6.82;2.78;;;;;;;21.37;100.00;99996.50;4329622;33;35012;-77
2022/06/28 08:42:27;;;;;;;6.97;3.17;;;;;;;21.84;100.00;100008.34;4338892;33;35128;-75
2022/06/28 08:45:13;;;;;;;4.32;2.62;;;;;;;21.54;100.00;100009.94;4333682;33;33663;-75
2022/06/28 08:48:14;;;;;;;7.37;3.00;;;;;;;22.15;98.71;100019.09;4322613;33;35708;-76
2022/06/28 08:51:00;;;;;;;8.15;3.15;;;;;;;22.71;96.34;100006.16;4335771;33;34551;-76
2022/06/28 08:53:48;;;;;;;8.43;2.72;;;;;;;23.30;95.59;100021.06;4326124;33;35177;-76
2022/06/28 08:56:35;;;;;;;7.15;2.50;;;;;;;23.12;95.67;100026.53;4323416;33;34401;-75
2022/06/28 08:59:22;;;;;;;9.07;2.78;;;;;;;23.62;86.96;100020.47;4336665;33;35659;-75
2022/06/28 09:02:10;;;;;;;6.07;2.08;;;;;;;24.36;84.88;100032.44;4332804;33;34946;-74
2022/06/28 09:04:56;;;;;;;6.18;2.28;;;;;;;24.34;80.96;100032.06;4322914;33;34620;-76
2022/06/28 09:07:44;;;;;;;6.93;2.20;;;;;;;24.00;85.40;100037.94;4320103;33;34102;-76
2022/06/28 09:10:30;;;;;;;6.35;2.62;;;;;;;23.82;84.58;100037.00;4324029;33;35286;-73
2022/06/28 09:13:37;;;;;;;9.93;2.72;;;;;;;23.98;85.47;100040.31;4338036;33;35050;-74
2022/06/28 09:16:24;;;;;;;7.35;1.92;;;;;;;24.50;80.64;100046.53;4322863;33;34704;-73
2022/06/28 09:19:11;;;;;;;6.12;1.98;;;;;;;25.02;79.37;100043.44;4333535;33;34340;-74
2022/06/28 09:21:57;;;;;;;6.72;2.50;;;;;;;24.81;80.74;100041.41;4324752;33;35550;-74
2022/06/28 09:24:45;;;;;;;5.65;2.20;;;;;;;25.26;80.47;100044.66;4335445;33;35565;-76
2022/06/28 09:27:34;;;;;;;8.43;2.70;;;;;;;25.38;77.51;100047.06;4321348;33;35959;-76
2022/06/28 09:30:21;;;;;;;7.00;2.90;;;;;;;25.64;73.93;100033.81;4325089;33;33760;-75
2022/06/28 09:33:24;;;;;;;6.18;3.03;;;;;;;25.65;76.62;100039.03;4327578;33;35649;-76
2022/06/28 09:36:16;;;;;;;6.40;3.45;;;;;;;25.74;74.05;100036.59;4336820;33;34696;-74
2022/06/28 09:39:13;;;;;;;7.35;3.58;;;;;;;26.40;71.69;100038.78;4322753;33;35363;-76
2022/06/28 09:42:01;;;;;;;6.93;4.10;;;;;;;26.31;75.83;100044.03;4336020;33;35159;-75
2022/06/28 09:45:05;;;;;;;6.55;3.42;;;;;;;26.28;78.91;100044.88;4323290;33;35662;-76
2022/06/28 09:47:51;;;;;;;7.97;4.20;;;;;;;26.51;72.17;100052.00;4323335;33;36056;-76
2022/06/28 09:50:57;;;;;;;6.80;4.05;;;;;;;27.27;68.30;100047.50;4337263;33;34402;-76
2022/06/28 09:53:44;;;;;;;6.85;3.85;;;;;;;25.65;75.10;100055.06;4336379;33;34992;-76
2022/06/28 09:56:55;;;;;;;4.85;3.70;;;;;;;25.96;71.94;100051.41;4329458;33;34608;-77
2022/06/28 09:59:45;;;;;;;5.82;3.60;;;;;;;26.14;75.01;100051.34;4333626;33;34492;-77
2022/06/28 10:02:31;;;;;;;7.50;4.30;;;;;;;26.45;75.12;100043.97;4327298;33;34726;-77
2022/06/28 10:05:18;;;;;;;6.68;4.15;;;;;;;26.31;76.31;100054.47;4327608;33;35518;-79
2022/06/28 10:08:05;;;;;;;5.57;4.10;;;;;;;27.22;70.94;100048.75;4338118;33;35609;-78
2022/06/28 10:10:52;;;;;;;8.88;4.45;;;;;;;27.19;70.36;100046.75;4322322;33;35594;-78
2022/06/28 10:17:33;;;;;;;5.93;4.35;;;;;;;27.55;72.34;100046.41;4330386;33;34303;-75
2022/06/28 10:20:31;;;;;;;9.85;5.07;;;;;;;27.97;67.29;100041.59;4337000;33;34236;-79
2022/06/28 10:23:23;;;;;;;7.65;4.10;;;;;;;28.12;67.57;100034.59;4338817;33;36157;-76
2022/06/28 10:26:16;;;;;;;7.00;4.53;;;;;;;28.20;66.16;100041.69;4338587;33;33327;-76
2022/06/28 10:29:04;;;;;;;8.98;4.75;;;;;;;28.13;65.50;100036.16;4339100;33;34170;-78
2022/06/28 10:31:50;;;;;;;9.35;5.97;;;;;;;28.21;63.25;100032.03;4329936;33;35599;-77
2022/06/28 10:34:52;;;;;;;7.05;4.62;;;;;;;28.29;63.58;100037.56;4330104;33;35831;-78
2022/06/28 10:38:10;;;;;;;9.88;4.40;;;;;;;29.26;61.71;100034.16;4338411;33;34280;-77
2022/06/28 10:41:10;;;;;;;8.40;4.65;;;;;;;29.05;60.98;100036.13;4335487;33;34230;-76
2022/06/28 10:44:10;;;;;;;9.05;4.78;;;;;;;29.46;58.75;100026.56;4338759;33;35250;-75
2022/06/28 10:47:00;;;;;;;9.20;4.50;;;;;;;28.28;62.81;100033.16;4338548;33;34984;-74
2022/06/28 10:49:49;;;;;;;5.57;4.28;;;;;;;29.13;59.47;100031.94;4328286;33;33846;-73
2022/06/28 10:52:36;;;;;;;7.03;4.28;;;;;;;29.58;58.23;100025.12;4332393;33;34178;-73
2022/06/28 10:55:22;;;;;;;8.30;4.37;;;;;;;29.17;59.01;100026.25;4330126;33;34677;-75
2022/06/28 10:58:11;;;;;;;7.95;4.55;;;;;;;28.84;62.05;100020.31;4321609;32;35888;-75
2022/06/28 11:00:57;;;;;;;6.65;4.50;;;;;;;29.35;58.09;100014.66;4331015;33;35242;-76
2022/06/28 11:04:22;;;;;;;8.38;4.72;;;;;;;29.79;55.55;100015.47;4342402;33;34177;-76
2022/06/28 11:07:24;;;;;;;6.07;4.32;;;;;;;29.19;56.41;100018.16;4324523;33;34318;-76
2022/06/28 11:10:13;;;;;;;10.32;5.47;;;;;;;29.99;53.86;100012.66;4332713;33;34904;-77
2022/06/28 11:13:19;;;;;;;7.80;5.03;;;;;;;29.12;57.69;100013.44;4318137;33;34372;-77
2022/06/28 11:16:09;;;;;;;6.12;3.97;;;;;;;29.39;56.05;100012.56;4318769;33;34302;-76
2022/06/28 11:19:05;;;;;;;5.90;4.55;;;;;;;30.22;51.25;100006.16;4324267;32;35619;-77
2022/06/28 11:21:55;;;;;;;9.88;4.68;;;;;;;30.22;50.79;100006.16;4314443;33;35046;-80
2022/06/28 11:24:44;;;;;;;6.65;5.10;;;;;;;30.35;52.80;100003.47;4335339;32;34853;-78
2022/06/28 11:27:32;;;;;;;7.60;4.97;;;;;;;29.54;54.51;100018.75;4321489;33;34562;-77
2022/06/28 11:30:20;;;;;;;11.25;4.80;;;;;;;29.54;56.32;100008.28;4317668;33;35558;-77
2022/06/28 11:33:08;;;;;;;7.30;4.82;;;;;;;30.11;52.24;100005.56;4326082;33;35787;-76
2022/06/28 11:35:59;;;;;;;8.85;5.55;;;;;;;30.48;51.20;100005.19;4336634;33;34716;-77
2022/06/28 11:38:45;;;;;;;8.15;5.43;;;;;;;29.82;54.05;100006.13;4335144;33;34198;-77
2022/06/28 11:41:32;;;;;;;9.35;5.30;;;;;;;29.74;53.76;100001.84;4339546;33;34641;-78
2022/06/28 11:44:19;;;;;;;8.70;5.10;;;;;;;30.82;53.08;99987.03;4339084;33;36038;-77
2022/06/28 11:47:07;;;;;;;6.95;5.40;;;;;;;30.42;51.89;99991.97;4340436;33;34139;-74
2022/06/28 11:50:14;;;;;;;10.15;5.57;;;;;;;30.78;50.59;99989.12;4333463;33;35046;-81
2022/06/28 11:53:00;;;;;;;9.27;5.65;;;;;;;30.51;52.85;99989.38;4331311;33;34204;-79
2022/06/28 11:55:52;;;;;;;11.00;6.43;;;;;;;31.04;50.58;99978.00;4334638;33;35768;-81
2022/06/28 11:58:38;;;;;;;7.57;5.40;;;;;;;30.53;52.96;99971.94;4324738;33;35525;-80
2022/06/28 12:01:27;;;;;;;10.45;6.00;;;;;;;30.75;52.36;99975.88;4334550;33;34843;-77
2022/06/28 12:04:21;;;;;;;6.28;5.10;;;;;;;30.02;52.89;99973.03;4335103;33;35624;-80
2022/06/28 12:07:07;;;;;;;12.07;5.68;;;;;;;31.25;51.14;99971.81;4318515;33;36875;-79
2022/06/28 12:09:53;;;;;;;9.00;5.22;;;;;;;31.61;49.62;99968.00;4324122;33;35732;-77
2022/06/28 12:12:41;;;;;;;6.20;5.20;;;;;;;31.47;49.88;99966.38;4333685;33;34510;-77
2022/06/28 12:15:32;;;;;;;9.65;5.20;;;;;;;31.92;47.04;99954.19;4335568;33;35524;-79
2022/06/28 12:18:18;;;;;;;7.53;5.53;;;;;;;32.25;44.85;99948.37;4338150;33;34598;-83
2022/06/28 12:21:12;;;;;;;8.25;5.28;;;;;;;31.51;47.59;99952.12;4337800;33;34259;-83
2022/06/28 12:23:59;;;;;;;8.65;5.18;;;;;;;32.08;47.72;99949.72;4334561;33;35165;-78
2022/06/28 12:26:46;;;;;;;9.43;5.18;;;;;;;32.31;46.01;99945.75;4331825;33;34660;-78
2022/06/28 12:29:33;;;;;;;7.95;5.32;;;;;;;32.78;45.01;99942.22;4330568;33;35041;-75
2022/06/28 12:32:20;;;;;;;8.50;5.72;;;;;;;32.54;46.25;99938.97;4332010;33;35186;-76
2022/06/28 12:35:26;;;;;;;8.57;4.82;;;;;;;32.78;46.59;99939.41;4327196;33;34332;-76
2022/06/28 12:38:13;;;;;;;8.93;4.78;;;;;;;33.62;43.34;99936.91;4327744;33;35488;-76
2022/06/28 12:40:59;;;;;;;10.07;5.28;;;;;;;33.97;41.18;99936.81;4334635;33;35676;-75
2022/06/28 12:43:46;;;;;;;7.60;5.05;;;;;;;32.16;45.70;99928.38;4327790;33;34596;-77
2022/06/28 12:46:32;;;;;;;9.60;5.05;;;;;;;32.04;45.53;99922.25;4325450;33;34573;-79
2022/06/28 12:49:19;;;;;;;7.10;5.32;;;;;;;32.62;44.19;99920.50;4322175;33;35218;-76
2022/06/28 12:52:06;;;;;;;9.98;5.12;;;;;;;32.14;45.49;99920.34;4326024;33;34976;-76
2022/06/28 12:54:52;;;;;;;8.27;5.07;;;;;;;32.50;44.23;99918.44;4331681;33;34648;-75
2022/06/28 12:57:39;;;;;;;7.90;5.35;;;;;;;32.00;44.00;99917.94;4337898;33;35169;-74
2022/06/28 13:00:26;;;;;;;7.65;5.12;;;;;;;32.45;43.44;99917.78;4310461;33;34667;-75
2022/06/28 13:03:12;;;;;;;6.85;4.72;;;;;;;32.04;44.24;99912.97;4328448;33;33989;-76
2022/06/28 13:05:58;;;;;;;9.07;4.80;;;;;;;32.78;45.70;99911.03;4339396;33;34873;-75
2022/06/28 13:08:46;;;;;;;8.07;4.90;;;;;;;33.03;42.96;99913.81;4329513;33;34383;-75
2022/06/28 13:11:32;;;;;;;7.85;4.82;;;;;;;33.79;41.29;99915.56;4332988;33;35656;-75
2022/06/28 13:14:18;;;;;;;8.07;4.90;;;;;;;33.50;41.65;99907.28;4329672;33;35629;-76
2022/06/28 13:17:07;;;;;;;7.12;4.78;;;;;;;32.80;43.87;99902.84;4341572;33;34583;-78
2022/06/28 13:19:54;;;;;;;11.70;5.00;;;;;;;33.23;40.35;99892.88;4339990;33;34197;-76